CST,Max TemperatureF,Mean TemperatureF,Min TemperatureF,Max Dew PointF,MeanDew PointF,Min DewpointF,Max Humidity, Mean Humidity, Min Humidity, Max Sea Level PressureIn, Mean Sea Level PressureIn, Min Sea Level PressureIn, Max VisibilityMiles, Mean VisibilityMiles, Min VisibilityMiles, Max Wind SpeedMPH, Mean Wind SpeedMPH, Max Gust SpeedMPH,PrecipitationIn, CloudCover, Events, WindDirDegrees
2013-11-1,60,49,37,35,29,20,76,50,24,30.20,30.02,29.83,10,10,6,28,13,35,0.00,2,,322
2013-11-2,61,44,27,30,26,22,81,54,26,30.34,30.19,29.96,10,10,10,21,12,28,0.00,0,,208
2013-11-3,73,59,44,33,30,28,53,38,22,29.91,29.69,29.53,10,10,9,41,26,52,0.00,0,,180
2013-11-4,58,49,39,36,33,30,79,58,36,30.05,29.92,29.60,10,10,10,24,13,32,0.00,0,,33
2013-11-5,51,43,35,52,40,30,100,85,70,30.18,29.95,29.87,10,6,0,30,15,37,0.85,8,Fog-Rain-Thunderstorm,357
2013-11-6,54,41,27,29,25,18,92,58,24,30.38,30.29,30.20,10,10,10,17,8,22,0.00,1,,270
2013-11-7,60,46,31,33,28,25,75,51,27,30.49,30.36,30.14,10,10,10,15,8,20,0.00,0,,201
2013-11-8,72,56,39,34,30,26,60,41,22,30.11,29.90,29.76,10,10,10,25,14,32,0.00,0,,180
2013-11-9,62,48,34,37,34,30,89,63,36,30.28,30.11,29.90,10,10,10,24,12,29,0.00,0,,65
2013-11-10,60,48,36,48,43,34,93,77,60,30.35,30.25,30.19,10,8,1,20,8,23,T,5,Rain,176
2013-11-11,56,41,26,48,37,20,93,76,59,30.71,30.32,30.13,10,6,2,29,15,35,0.00,7,,348
2013-11-12,42,33,23,26,21,17,88,70,51,30.87,30.76,30.61,10,10,10,20,7,24,0.00,0,,190
2013-11-13,66,46,26,38,31,21,85,60,34,30.58,30.28,30.01,10,10,10,26,12,31,0.00,0,,179
2013-11-14,58,45,31,36,32,29,89,66,43,29.96,29.93,29.90,10,10,10,28,11,35,0.00,0,,16
2013-11-15,68,49,29,38,32,28,92,60,28,29.92,29.70,29.48,10,10,7,26,11,35,0.00,0,,209
2013-11-16,71,58,44,40,35,27,71,47,22,29.47,29.37,29.29,10,10,10,23,11,31,0.00,0,,234
2013-11-17,60,47,33,31,21,11,82,49,16,30.14,29.84,29.37,10,10,10,30,12,37,0.00,0,,341
2013-11-18,59,43,26,20,17,13,68,43,17,30.30,30.21,30.15,10,10,10,24,10,30,0.00,0,,210
2013-11-19,64,47,30,42,29,20,77,52,27,30.12,29.87,29.70,10,10,2,29,14,38,0.00,0,,168
2013-11-20,68,50,31,41,36,29,100,63,26,29.86,29.77,29.68,10,10,6,14,7,20,0.00,0,,44
2013-11-21,48,34,19,42,21,12,88,80,71,30.66,30.28,29.83,10,8,2,36,22,44,0.11,8,Rain-Snow,6
2013-11-22,29,24,18,16,11,7,77,60,42,30.78,30.68,30.60,10,7,0,31,12,37,T,8,Snow,347
2013-11-23,31,28,24,19,18,16,81,70,58,30.80,30.72,30.68,10,10,10,18,7,22,0.00,5,,55
2013-11-24,31,28,24,27,25,19,92,83,74,30.68,30.38,30.07,10,6,0,23,14,28,0.02,8,Fog-Snow,186
2013-11-25,35,30,25,28,25,23,92,78,64,30.33,30.16,30.03,10,8,5,18,9,24,0.00,7,,75
2013-11-26,43,33,23,22,19,17,81,59,36,30.47,30.41,30.32,10,10,10,22,10,25,0.00,0,,8
2013-11-27,48,33,18,33,24,15,85,69,53,30.45,30.27,30.11,10,10,10,20,9,23,0.00,0,,185
2013-11-28,45,35,24,28,24,20,92,69,45,30.41,30.29,30.10,10,10,8,23,11,28,0.00,0,,57
2013-11-29,55,38,21,36,27,19,92,71,50,30.38,30.22,30.11,10,9,6,23,10,28,0.00,0,,197
2013-11-30,63,45,27,29,25,22,85,53,20,30.22,30.15,30.08,10,10,10,12,5,13,0.00,0,,286